Time;durP1;ratioP1;P1;durP2;ratioP2;P2;SDS_P1;SDS_P2;PMS_P1;PMS_P2;Temp;Humidity;BMP_temperature;BMP_pressure;BME280_temperature;BME280_humidity;BME280_pressure;Samples;Min_cycle;Max_cycle;Signal;HPM_P1;HPM_P2
2023/06/11 00:01:08;;;;;;;5.97;4.65;;;19.30;99.90;;;;;;5083980;27;20122;-79
2023/06/11 00:03:35;;;;;;;6.32;5.18;;;19.30;99.90;;;;;;5117872;27;20074;-77
2023/06/11 00:06:01;;;;;;;5.57;4.95;;;19.30;99.90;;;;;;5117756;27;20057;-78
2023/06/11 00:08:27;;;;;;;5.57;5.00;;;19.30;99.90;;;;;;5117690;27;20047;-79
2023/06/11 00:10:52;;;;;;;6.47;5.07;;;19.30;99.90;;;;;;5117562;27;20134;-78
2023/06/11 00:13:18;;;;;;;6.40;4.70;;;19.30;99.90;;;;;;5117169;27;20047;-78
2023/06/11 00:15:44;;;;;;;5.43;4.65;;;19.40;99.90;;;;;;5117067;27;20047;-79
2023/06/11 00:18:10;;;;;;;7.72;4.88;;;19.40;99.90;;;;;;5117244;27;20047;-79
2023/06/11 00:20:40;;;;;;;5.68;4.78;;;19.40;99.90;;;;;;5084005;27;20047;-79
2023/06/11 00:23:06;;;;;;;6.20;4.78;;;19.40;99.90;;;;;;5100531;27;20043;-79
2023/06/11 00:25:32;;;;;;;5.30;4.80;;;19.50;99.90;;;;;;5117396;27;20529;-79
2023/06/11 00:27:58;;;;;;;5.63;4.47;;;19.50;99.90;;;;;;5100073;27;20142;-79
2023/06/11 00:30:24;;;;;;;5.32;4.70;;;19.50;99.90;;;;;;5100697;27;20130;-79
2023/06/11 00:32:50;;;;;;;6.85;5.35;;;19.50;99.90;;;;;;5138343;27;20121;-79
2023/06/11 00:35:16;;;;;;;6.25;5.43;;;19.50;99.90;;;;;;5140033;27;20061;-79
2023/06/11 00:37:42;;;;;;;6.20;5.13;;;19.50;99.90;;;;;;5133440;27;20502;-79
2023/06/11 00:40:09;;;;;;;5.22;4.70;;;19.50;99.90;;;;;;5099893;27;20051;-79
2023/06/11 00:42:35;;;;;;;7.35;5.18;;;19.50;99.90;;;;;;5099810;27;20153;-78
2023/06/11 00:45:03;;;;;;;7.10;5.05;;;19.50;99.90;;;;;;5116016;27;20051;-78
2023/06/11 00:47:29;;;;;;;6.38;4.97;;;19.50;99.90;;;;;;5116783;27;20043;-79
2023/06/11 00:49:56;;;;;;;7.05;5.13;;;19.50;99.90;;;;;;5099911;27;20103;-79
2023/06/11 00:52:22;;;;;;;5.50;4.70;;;19.50;99.90;;;;;;5116937;27;20371;-79
2023/06/11 00:54:48;;;;;;;6.47;4.90;;;19.40;99.90;;;;;;5116345;27;20632;-79
2023/06/11 00:57:17;;;;;;;6.75;5.20;;;19.40;99.90;;;;;;5116713;27;20437;-79
2023/06/11 00:59:48;;;;;;;5.60;5.05;;;19.30;99.90;;;;;;5099708;27;20035;-79
2023/06/11 01:02:21;;;;;;;6.05;4.90;;;19.30;99.90;;;;;;5116560;27;20055;-79
2023/06/11 01:04:51;;;;;;;8.25;4.93;;;19.30;99.90;;;;;;5116515;27;20478;-79
2023/06/11 01:07:18;;;;;;;6.43;4.95;;;19.30;99.90;;;;;;5116783;27;20043;-79
2023/06/11 01:09:45;;;;;;;5.40;4.90;;;19.20;99.90;;;;;;5116510;27;20061;-79
2023/06/11 01:12:12;;;;;;;6.60;4.88;;;19.20;99.90;;;;;;5115941;27;20055;-79
2023/06/11 01:14:39;;;;;;;5.30;4.80;;;19.10;99.90;;;;;;5116020;27;20039;-79
2023/06/11 01:17:15;;;;;;;5.97;5.25;;;19.10;99.90;;;;;;5115952;27;20126;-79
2023/06/11 01:19:52;;;;;;;5.47;4.93;;;19.10;99.90;;;;;;5099684;27;20065;-79
2023/06/11 01:22:29;;;;;;;7.10;4.68;;;19.00;99.90;;;;;;5099316;27;20824;-79
2023/06/11 01:24:59;;;;;;;5.80;5.03;;;18.90;99.90;;;;;;5099053;27;20055;-79
2023/06/11 01:27:37;;;;;;;6.63;5.22;;;18.90;99.90;;;;;;5116418;27;20051;-79
2023/06/11 01:30:06;;;;;;;6.18;5.35;;;18.80;99.90;;;;;;5115936;27;20061;-79
2023/06/11 01:32:32;;;;;;;5.55;5.00;;;18.80;99.90;;;;;;5132812;27;20038;-79
2023/06/11 01:35:02;;;;;;;6.75;5.35;;;18.70;99.90;;;;;;5136439;27;20448;-79
2023/06/11 01:37:29;;;;;;;6.65;5.57;;;18.70;99.90;;;;;;5133094;27;20134;-79
2023/06/11 01:39:58;;;;;;;7.10;5.70;;;18.70;99.90;;;;;;5099431;27;20058;-79
2023/06/11 01:42:24;;;;;;;8.45;5.80;;;18.60;99.90;;;;;;5082329;28;20141;-79
2023/06/11 01:44:50;;;;;;;6.30;5.38;;;18.60;99.90;;;;;;5098618;27;20125;-79
2023/06/11 01:47:15;;;;;;;7.10;5.32;;;18.50;99.90;;;;;;5098842;27;20099;-79
2023/06/11 01:49:41;;;;;;;5.82;4.82;;;18.50;99.90;;;;;;5094835;28;20403;-79
2023/06/11 01:52:07;;;;;;;5.85;5.30;;;18.40;99.90;;;;;;5098768;28;20380;-79
2023/06/11 01:54:33;;;;;;;6.35;5.72;;;18.30;99.90;;;;;;5115649;28;20050;-79
2023/06/11 01:56:58;;;;;;;5.95;5.15;;;18.30;99.90;;;;;;5099012;28;20043;-79
2023/06/11 01:59:24;;;;;;;7.13;5.57;;;18.30;99.90;;;;;;5115922;28;20085;-79
2023/06/11 02:01:53;;;;;;;6.20;5.43;;;18.30;99.90;;;;;;5115671;28;20039;-79
2023/06/11 02:04:22;;;;;;;6.18;5.47;;;18.30;99.90;;;;;;5101636;27;20079;-79
2023/06/11 02:06:49;;;;;;;6.53;5.38;;;18.30;99.90;;;;;;5103097;27;20054;-79
2023/06/11 02:09:14;;;;;;;7.00;5.90;;;18.30;99.90;;;;;;5120074;27;20151;-79
2023/06/11 02:11:40;;;;;;;7.70;6.30;;;18.20;99.90;;;;;;5120110;27;20121;-79
2023/06/11 02:14:06;;;;;;;6.80;5.97;;;18.20;99.90;;;;;;5102649;27;20048;-78
2023/06/11 02:16:31;;;;;;;6.85;5.82;;;18.20;99.90;;;;;;5119148;27;20043;-79
2023/06/11 02:18:57;;;;;;;5.90;5.30;;;18.20;99.90;;;;;;5102542;27;20395;-79
2023/06/11 02:21:23;;;;;;;8.05;5.47;;;18.10;99.90;;;;;;5119754;27;20097;-79
2023/06/11 02:23:49;;;;;;;6.03;5.43;;;18.10;99.90;;;;;;5119750;27;20130;-79
2023/06/11 02:26:15;;;;;;;9.43;5.68;;;18.10;99.90;;;;;;5102931;27;20483;-79
2023/06/11 02:28:40;;;;;;;6.32;5.30;;;18.10;99.90;;;;;;5127564;27;20091;-79
2023/06/11 02:31:06;;;;;;;6.82;5.85;;;18.00;99.90;;;;;;5118044;27;20047;-79
2023/06/11 02:33:32;;;;;;;7.72;6.40;;;18.00;99.90;;;;;;5102570;27;20121;-79
2023/06/11 02:35:57;;;;;;;7.45;5.85;;;17.90;99.90;;;;;;5085474;27;20407;-79
2023/06/11 02:38:23;;;;;;;7.15;5.53;;;17.90;99.90;;;;;;5126539;27;20051;-79
2023/06/11 02:40:49;;;;;;;8.30;6.38;;;17.80;99.90;;;;;;5119500;27;20043;-79
2023/06/11 02:43:14;;;;;;;7.18;6.28;;;17.80;99.90;;;;;;5136409;27;20430;-79
2023/06/11 02:45:40;;;;;;;7.07;6.38;;;17.70;99.90;;;;;;5135870;27;20047;-80
2023/06/11 02:48:06;;;;;;;6.75;6.10;;;17.70;99.90;;;;;;5139209;27;20055;-79
2023/06/11 02:50:31;;;;;;;7.63;6.28;;;17.70;99.90;;;;;;5139713;27;20046;-80
2023/06/11 02:52:57;;;;;;;7.20;6.20;;;17.60;99.90;;;;;;5122575;27;20045;-79
2023/06/11 02:55:23;;;;;;;7.03;6.30;;;17.60;99.90;;;;;;5122515;27;20054;-79
2023/06/11 02:57:49;;;;;;;7.47;5.90;;;17.50;99.90;;;;;;5139640;27;20064;-79
2023/06/11 03:00:14;;;;;;;6.43;5.72;;;17.50;99.90;;;;;;5122497;27;20046;-79
2023/06/11 03:02:40;;;;;;;6.63;5.80;;;17.50;99.90;;;;;;5139474;27;20056;-79
2023/06/11 03:05:06;;;;;;;7.00;6.30;;;17.40;99.90;;;;;;5105392;27;20142;-80
2023/06/11 03:07:32;;;;;;;6.43;5.80;;;17.40;99.90;;;;;;5122525;27;20088;-79
2023/06/11 03:09:57;;;;;;;6.38;5.78;;;17.40;99.90;;;;;;5139164;27;20451;-79
2023/06/11 03:12:23;;;;;;;6.85;6.05;;;17.30;99.90;;;;;;5121638;27;20053;-79
2023/06/11 03:14:50;;;;;;;7.32;6.10;;;17.30;99.90;;;;;;5137464;27;20391;-79
2023/06/11 03:17:15;;;;;;;7.38;6.10;;;17.30;99.90;;;;;;5121482;27;20058;-79
2023/06/11 03:19:41;;;;;;;8.50;6.72;;;17.20;99.90;;;;;;5122075;27;20038;-80
2023/06/11 03:22:07;;;;;;;7.82;6.22;;;17.20;99.90;;;;;;5139031;27;20061;-79
2023/06/11 03:24:33;;;;;;;7.45;6.47;;;17.20;99.90;;;;;;5138926;27;20039;-79
2023/06/11 03:26:58;;;;;;;7.00;6.30;;;17.20;99.90;;;;;;5105152;27;20042;-80
2023/06/11 03:29:24;;;;;;;7.55;6.43;;;17.10;99.90;;;;;;5122000;27;20054;-80
2023/06/11 03:31:50;;;;;;;8.55;6.50;;;17.10;99.90;;;;;;5110509;27;20083;-79
2023/06/11 03:34:15;;;;;;;7.82;6.90;;;17.10;99.90;;;;;;5084132;27;20127;-79
2023/06/11 03:36:41;;;;;;;8.25;6.65;;;17.10;99.90;;;;;;5117811;27;20051;-79
2023/06/11 03:39:07;;;;;;;7.70;6.90;;;17.20;99.90;;;;;;5118257;27;20047;-79
2023/06/11 03:41:32;;;;;;;7.22;6.15;;;17.10;99.90;;;;;;5138912;27;20049;-79
2023/06/11 03:43:58;;;;;;;7.57;6.80;;;17.20;99.90;;;;;;5138656;27;20050;-79
2023/06/11 03:46:24;;;;;;;6.88;5.85;;;17.20;99.90;;;;;;5137994;27;20043;-79
2023/06/11 03:48:50;;;;;;;8.02;6.57;;;17.20;99.90;;;;;;5112530;27;20043;-79
2023/06/11 03:51:15;;;;;;;7.78;6.32;;;17.20;99.90;;;;;;5101130;27;20078;-79
2023/06/11 03:53:41;;;;;;;7.20;6.43;;;17.20;99.90;;;;;;5100860;27;20464;-79
2023/06/11 03:56:07;;;;;;;8.98;7.10;;;17.20;99.90;;;;;;5117747;27;20597;-79
2023/06/11 03:58:32;;;;;;;7.10;6.13;;;17.20;99.90;;;;;;5117848;27;20051;-79
2023/06/11 04:00:58;;;;;;;7.45;6.75;;;17.20;99.90;;;;;;5100590;27;20369;-79
2023/06/11 04:03:24;;;;;;;8.57;7.00;;;17.20;99.90;;;;;;5100648;27;20257;-79
2023/06/11 04:05:50;;;;;;;7.35;6.63;;;17.30;99.90;;;;;;5084105;27;20054;-79
2023/06/11 04:08:16;;;;;;;8.25;7.45;;;17.30;99.90;;;;;;5117661;27;20361;-79
2023/06/11 04:10:42;;;;;;;7.55;6.65;;;17.30;99.90;;;;;;5100739;27;20099;-79
2023/06/11 04:13:08;;;;;;;7.95;6.78;;;17.40;99.90;;;;;;5117558;27;20039;-79
2023/06/11 04:15:34;;;;;;;8.73;7.47;;;17.40;99.90;;;;;;5117116;27;20054;-79
2023/06/11 04:17:59;;;;;;;8.35;7.45;;;17.40;99.90;;;;;;5100467;27;20439;-79
2023/06/11 04:20:25;;;;;;;8.00;7.20;;;17.50;99.90;;;;;;5083387;27;20047;-79
2023/06/11 04:22:52;;;;;;;9.23;7.20;;;17.50;99.90;;;;;;5117060;27;20043;-79
2023/06/11 04:25:18;;;;;;;9.82;7.20;;;17.60;99.90;;;;;;5117374;27;20055;-79
2023/06/11 04:27:45;;;;;;;8.15;7.05;;;17.70;99.90;;;;;;5099681;27;20056;-79
2023/06/11 04:30:12;;;;;;;7.93;7.13;;;17.70;99.90;;;;;;5117204;27;20043;-79
2023/06/11 04:32:40;;;;;;;7.95;7.15;;;17.80;99.90;;;;;;5134567;27;20046;-79
2023/06/11 04:35:06;;;;;;;8.35;7.35;;;17.80;99.90;;;;;;5120663;27;20054;-79
2023/06/11 04:37:38;;;;;;;7.88;6.97;;;17.90;99.90;;;;;;5116625;27;20054;-79
2023/06/11 04:40:10;;;;;;;9.18;7.60;;;17.90;99.90;;;;;;5117030;27;20514;-79
2023/06/11 04:42:38;;;;;;;7.50;6.68;;;18.00;99.90;;;;;;5084993;27;20051;-79
2023/06/11 04:45:05;;;;;;;8.23;7.43;;;18.10;99.90;;;;;;5116093;27;20047;-78
2023/06/11 04:47:32;;;;;;;8.18;7.28;;;18.20;99.90;;;;;;5116852;27;20051;-79
2023/06/11 04:50:02;;;;;;;7.95;7.15;;;18.30;99.90;;;;;;5116575;27;20118;-79
2023/06/11 04:52:35;;;;;;;7.50;6.72;;;18.40;99.90;;;;;;5100080;27;20082;-79
2023/06/11 04:55:03;;;;;;;7.63;6.85;;;18.50;99.90;;;;;;5116715;27;20399;-80
2023/06/11 04:57:32;;;;;;;7.70;6.70;;;18.60;99.90;;;;;;5116829;27;20479;-79
2023/06/11 04:59:59;;;;;;;8.38;7.38;;;18.70;99.90;;;;;;5116733;27;20035;-79
2023/06/11 05:02:26;;;;;;;8.15;7.30;;;18.80;99.90;;;;;;5116570;27;20047;-80
2023/06/11 05:04:53;;;;;;;7.72;6.97;;;18.90;99.90;;;;;;5099864;27;20053;-78
2023/06/11 05:07:19;;;;;;;9.70;7.38;;;19.00;99.90;;;;;;5116403;27;20040;-79
2023/06/11 05:09:45;;;;;;;8.60;7.07;;;19.10;99.90;;;;;;5082780;27;20054;-75
2023/06/11 05:12:11;;;;;;;7.88;7.07;;;19.20;99.90;;;;;;5116490;27;20051;-78
2023/06/11 05:14:37;;;;;;;8.05;6.95;;;19.30;99.90;;;;;;5116177;27;20047;-77
2023/06/11 05:17:03;;;;;;;8.82;7.57;;;19.40;99.90;;;;;;5115459;27;20539;-78
2023/06/11 05:19:30;;;;;;;7.57;6.75;;;19.40;99.90;;;;;;5099548;27;20124;-78
2023/06/11 05:21:55;;;;;;;8.77;7.43;;;19.50;99.90;;;;;;5116283;27;20049;-76
2023/06/11 05:24:21;;;;;;;8.68;7.13;;;19.60;99.90;;;;;;5116366;27;20053;-77
2023/06/11 05:26:47;;;;;;;7.63;6.82;;;19.70;99.90;;;;;;5099088;27;20043;-76
2023/06/11 05:29:13;;;;;;;8.23;6.82;;;19.80;99.90;;;;;;5099362;27;20050;-76
2023/06/11 05:31:39;;;;;;;8.35;7.25;;;19.80;99.90;;;;;;5125176;27;20050;-75
2023/06/11 05:34:04;;;;;;;8.00;7.20;;;19.90;99.90;;;;;;5136583;27;20047;-76
2023/06/11 05:36:31;;;;;;;7.97;7.18;;;20.00;99.90;;;;;;5138038;27;20395;-77
2023/06/11 05:38:56;;;;;;;7.97;6.35;;;20.10;99.90;;;;;;5122686;27;20122;-75
2023/06/11 05:41:22;;;;;;;7.88;6.97;;;20.20;99.90;;;;;;5116844;27;20151;-75
2023/06/11 05:43:48;;;;;;;8.52;7.10;;;20.20;99.90;;;;;;5115950;27;20068;-77
2023/06/11 05:46:15;;;;;;;7.90;6.88;;;20.30;99.90;;;;;;5115462;28;20485;-77
2023/06/11 05:48:43;;;;;;;7.55;6.75;;;20.40;99.90;;;;;;5098488;27;20058;-75
2023/06/11 05:51:10;;;;;;;7.43;6.65;;;20.50;99.90;;;;;;5065989;28;20129;-76
2023/06/11 05:53:36;;;;;;;7.90;7.03;;;20.60;99.90;;;;;;5099139;28;20144;-76
2023/06/11 05:56:03;;;;;;;8.77;6.70;;;20.70;99.90;;;;;;5115886;28;20125;-78
2023/06/11 05:58:33;;;;;;;8.15;6.85;;;20.80;99.90;;;;;;5115894;28;20043;-76
2023/06/11 06:01:03;;;;;;;7.68;6.50;;;20.80;99.90;;;;;;5133697;28;20054;-78
2023/06/11 06:03:33;;;;;;;8.07;6.57;;;20.90;99.90;;;;;;5116058;28;20047;-75
2023/06/11 06:06:03;;;;;;;7.63;6.40;;;21.00;99.90;;;;;;5099236;28;20062;-77
2023/06/11 06:08:29;;;;;;;7.50;6.32;;;21.10;99.90;;;;;;5115902;28;20043;-76
2023/06/11 06:10:56;;;;;;;8.07;6.65;;;21.20;99.90;;;;;;5115572;28;20503;-77
2023/06/11 06:13:25;;;;;;;9.52;6.68;;;21.30;99.90;;;;;;5098526;28;20083;-79
2023/06/11 06:15:52;;;;;;;8.00;6.45;;;21.40;99.90;;;;;;5097918;28;20483;-79
2023/06/11 06:18:18;;;;;;;7.85;6.75;;;21.40;99.90;;;;;;5082213;28;20116;-78
2023/06/11 06:20:44;;;;;;;9.02;6.65;;;21.50;99.90;;;;;;5082023;28;20120;-77
2023/06/11 06:23:10;;;;;;;6.53;5.80;;;21.50;99.90;;;;;;5115481;28;20500;-76
2023/06/11 06:25:37;;;;;;;7.13;6.43;;;21.70;99.90;;;;;;5098498;28;20043;-77
2023/06/11 06:28:05;;;;;;;7.50;6.72;;;21.70;99.90;;;;;;5115663;28;20134;-79
2023/06/11 06:30:32;;;;;;;7.65;6.50;;;21.80;99.90;;;;;;5098656;28;20091;-75
2023/06/11 06:32:58;;;;;;;7.65;6.63;;;21.90;99.90;;;;;;5115473;28;20043;-77
2023/06/11 06:35:24;;;;;;;8.40;6.63;;;22.00;99.90;;;;;;5132490;28;20057;-76
2023/06/11 06:37:50;;;;;;;7.05;6.35;;;22.00;99.90;;;;;;5115159;28;20480;-76
2023/06/11 06:40:16;;;;;;;8.15;5.95;;;22.10;99.90;;;;;;5132494;28;20059;-66
2023/06/11 06:42:41;;;;;;;7.07;6.38;;;22.20;99.90;;;;;;5133749;28;20473;-65
2023/06/11 06:45:08;;;;;;;8.52;6.40;;;22.30;99.90;;;;;;5133289;27;20045;-66
2023/06/11 06:47:34;;;;;;;7.50;6.03;;;22.40;99.90;;;;;;5133206;27;20047;-66
2023/06/11 06:50:00;;;;;;;6.60;5.90;;;22.50;99.90;;;;;;5115225;28;20039;-66
2023/06/11 06:52:26;;;;;;;8.07;5.82;;;22.60;99.90;;;;;;5115568;28;20130;-66
2023/06/11 06:54:52;;;;;;;6.88;6.18;;;22.70;99.90;;;;;;5116347;28;20533;-67
2023/06/11 06:57:18;;;;;;;7.68;6.05;;;22.80;99.90;;;;;;5116663;28;20039;-66
2023/06/11 06:59:43;;;;;;;7.00;6.30;;;22.90;99.90;;;;;;5116489;28;20472;-66
2023/06/11 07:02:09;;;;;;;6.45;5.85;;;23.00;99.90;;;;;;5116363;28;20043;-66
2023/06/11 07:04:35;;;;;;;7.07;6.38;;;23.00;99.90;;;;;;5117758;27;20047;-67
2023/06/11 07:07:01;;;;;;;7.63;5.93;;;23.10;99.90;;;;;;5130649;27;20031;-67
2023/06/11 07:09:26;;;;;;;6.82;6.13;;;23.20;99.90;;;;;;5135833;27;20100;-66
2023/06/11 07:11:52;;;;;;;7.07;6.38;;;23.30;99.90;;;;;;5129337;27;20054;-66
2023/06/11 07:14:19;;;;;;;7.88;5.90;;;23.40;99.90;;;;;;5136267;27;20430;-66
2023/06/11 07:16:45;;;;;;;7.50;6.10;;;23.50;99.90;;;;;;5135683;27;20069;-66
2023/06/11 07:19:10;;;;;;;8.18;6.65;;;23.60;99.90;;;;;;5136709;27;20055;-66
2023/06/11 07:21:37;;;;;;;7.05;5.82;;;23.70;99.90;;;;;;5119658;27;20046;-66
2023/06/11 07:24:04;;;;;;;6.50;5.90;;;23.80;99.90;;;;;;5127561;27;20040;-66
2023/06/11 07:26:31;;;;;;;6.43;5.75;;;23.90;99.90;;;;;;5120727;27;20051;-66
2023/06/11 07:28:56;;;;;;;7.07;5.80;;;24.00;99.90;;;;;;5115601;28;20130;-66
2023/06/11 07:31:22;;;;;;;6.50;5.80;;;24.10;99.90;;;;;;5122513;27;20120;-66
2023/06/11 07:33:49;;;;;;;7.88;6.00;;;24.10;99.90;;;;;;5136263;27;20043;-66
2023/06/11 07:36:16;;;;;;;8.25;6.55;;;24.20;99.90;;;;;;5129337;27;20050;-66
2023/06/11 07:38:45;;;;;;;6.32;5.63;;;24.30;99.90;;;;;;5142383;27;20104;-65
2023/06/11 07:41:12;;;;;;;6.20;5.53;;;24.40;99.90;;;;;;5142988;27;20518;-65
2023/06/11 07:43:38;;;;;;;6.53;5.88;;;24.40;99.90;;;;;;5125987;27;20099;-65
2023/06/11 07:46:04;;;;;;;8.43;6.00;;;24.50;99.90;;;;;;5151880;27;20038;-65
2023/06/11 07:48:30;;;;;;;6.70;6.10;;;24.60;99.90;;;;;;5149928;27;20053;-66
2023/06/11 07:50:57;;;;;;;6.72;5.70;;;24.70;99.90;;;;;;5135030;27;20487;-66
2023/06/11 07:53:23;;;;;;;6.72;6.03;;;24.90;99.90;;;;;;5119914;27;20125;-66
2023/06/11 07:55:55;;;;;;;8.02;5.90;;;24.90;99.90;;;;;;5148492;27;20077;-66
2023/06/11 07:58:21;;;;;;;5.93;5.40;;;25.00;99.90;;;;;;5135572;27;20055;-66
2023/06/11 08:00:47;;;;;;;8.50;6.28;;;25.10;99.90;;;;;;5134902;27;20435;-66
2023/06/11 08:03:12;;;;;;;6.38;5.72;;;25.20;99.90;;;;;;5135606;27;20047;-66
2023/06/11 08:05:38;;;;;;;6.35;5.63;;;25.30;99.90;;;;;;5117044;27;20118;-66
2023/06/11 08:08:04;;;;;;;6.10;5.50;;;25.40;99.90;;;;;;5135560;27;20463;-65
2023/06/11 08:10:32;;;;;;;6.30;5.70;;;25.50;99.90;;;;;;5135270;27;20424;-66
2023/06/11 08:12:58;;;;;;;6.50;5.90;;;25.60;99.90;;;;;;5116761;27;20051;-66
2023/06/11 08:15:24;;;;;;;6.63;5.93;;;25.60;99.90;;;;;;5134808;27;20075;-66
2023/06/11 08:17:50;;;;;;;6.30;5.70;;;25.70;99.90;;;;;;5135090;27;20100;-65
2023/06/11 08:20:16;;;;;;;6.40;5.63;;;25.70;99.90;;;;;;5134599;27;20047;-65
2023/06/11 08:22:42;;;;;;;6.45;5.82;;;25.80;99.90;;;;;;5117196;27;20039;-65
2023/06/11 08:25:09;;;;;;;7.25;6.18;;;25.90;99.90;;;;;;5135062;27;20039;-65
2023/06/11 08:27:35;;;;;;;6.10;5.50;;;26.00;99.90;;;;;;5134697;27;20180;-65
2023/06/11 08:30:02;;;;;;;6.05;5.45;;;26.10;99.90;;;;;;5137912;27;20038;-65
2023/06/11 08:32:27;;;;;;;6.32;5.50;;;26.10;99.90;;;;;;5133236;27;20055;-65
2023/06/11 08:34:53;;;;;;;6.03;5.43;;;26.20;99.90;;;;;;5155265;27;20068;-66
2023/06/11 08:37:19;;;;;;;6.40;5.60;;;26.30;99.90;;;;;;5138160;27;20055;-66
2023/06/11 08:39:45;;;;;;;6.03;5.43;;;26.30;99.90;;;;;;5137148;27;20057;-66
2023/06/11 08:42:11;;;;;;;6.38;5.78;;;26.40;99.90;;;;;;5135191;27;20039;-66
2023/06/11 08:44:37;;;;;;;7.10;5.18;;;26.50;99.90;;;;;;5137063;27;20046;-65
2023/06/11 08:47:04;;;;;;;7.57;5.22;;;26.60;99.90;;;;;;5154256;27;20050;-65
2023/06/11 08:49:30;;;;;;;7.30;5.78;;;26.70;99.90;;;;;;5139961;27;20070;-65
2023/06/11 08:52:01;;;;;;;6.68;5.70;;;26.80;99.90;;;;;;5134724;27;20132;-65
2023/06/11 08:54:27;;;;;;;6.65;5.35;;;27.00;99.90;;;;;;5116304;27;20078;-66
2023/06/11 08:56:53;;;;;;;6.15;5.57;;;27.10;99.90;;;;;;5116095;27;20078;-65
2023/06/11 08:59:19;;;;;;;6.28;5.68;;;27.20;99.90;;;;;;5135812;27;20082;-65
2023/06/11 09:01:50;;;;;;;5.85;5.35;;;27.30;99.90;;;;;;5144141;27;20452;-65
2023/06/11 09:04:20;;;;;;;7.65;5.70;;;27.30;99.90;;;;;;5133960;27;20056;-66
2023/06/11 09:06:57;;;;;;;6.20;5.60;;;27.40;99.90;;;;;;5134232;27;20043;-66
2023/06/11 09:09:23;;;;;;;5.82;5.22;;;27.50;99.90;;;;;;5133872;27;20035;-66
2023/06/11 09:11:48;;;;;;;6.95;5.32;;;27.60;99.90;;;;;;5134063;27;20069;-66
2023/06/11 09:14:14;;;;;;;5.70;4.95;;;27.70;99.90;;;;;;5115994;27;20639;-66
2023/06/11 09:16:42;;;;;;;5.63;5.03;;;27.80;99.90;;;;;;5133025;27;20476;-65
2023/06/11 09:19:18;;;;;;;6.13;5.55;;;27.90;99.90;;;;;;5133946;27;20074;-65
2023/06/11 09:21:51;;;;;;;5.90;5.30;;;28.00;99.90;;;;;;5133998;27;20043;-65
2023/06/11 09:24:19;;;;;;;6.10;5.50;;;28.10;99.90;;;;;;5133541;27;20074;-66
2023/06/11 09:26:53;;;;;;;6.13;5.50;;;28.20;99.90;;;;;;5115422;27;20688;-65
2023/06/11 09:29:19;;;;;;;5.88;5.28;;;28.30;99.90;;;;;;5134007;27;20047;-66
2023/06/11 09:31:44;;;;;;;6.75;5.32;;;28.40;99.90;;;;;;5151295;27;20133;-66
2023/06/11 09:34:12;;;;;;;6.38;5.78;;;28.60;99.90;;;;;;5136137;27;20126;-66
2023/06/11 09:36:38;;;;;;;6.78;5.40;;;28.70;99.90;;;;;;5144638;27;20043;-66
2023/06/11 09:39:04;;;;;;;5.53;5.03;;;28.90;99.90;;;;;;5132348;27;20126;-66
2023/06/11 09:41:30;;;;;;;6.53;5.32;;;28.90;99.90;;;;;;5153788;27;20043;-66
2023/06/11 09:43:56;;;;;;;6.28;5.68;;;28.90;99.90;;;;;;5136221;27;20481;-65
2023/06/11 09:46:23;;;;;;;5.55;5.03;;;28.90;99.90;;;;;;5153375;27;20125;-65
2023/06/11 09:48:48;;;;;;;6.45;5.00;;;29.00;99.90;;;;;;5144708;27;20559;-65
2023/06/11 09:51:21;;;;;;;6.15;5.43;;;29.00;99.90;;;;;;5133623;27;20059;-65
2023/06/11 09:53:50;;;;;;;6.53;5.30;;;29.20;99.90;;;;;;5133734;28;20039;-66
2023/06/11 09:56:16;;;;;;;5.55;5.05;;;29.40;99.90;;;;;;5115068;28;20054;-66
2023/06/11 09:58:44;;;;;;;4.95;4.40;;;29.50;99.90;;;;;;5133197;28;20047;-65
2023/06/11 10:01:11;;;;;;;5.93;4.63;;;29.40;99.90;;;;;;5150645;27;20047;-65
2023/06/11 10:03:37;;;;;;;7.13;4.80;;;29.50;99.90;;;;;;5135891;27;20183;-65
2023/06/11 10:06:09;;;;;;;5.00;4.50;;;29.70;99.90;;;;;;5154190;27;20071;-65
2023/06/11 10:08:36;;;;;;;5.22;4.45;;;29.80;99.90;;;;;;5154499;27;20492;-66
2023/06/11 10:11:03;;;;;;;5.53;4.53;;;29.90;99.90;;;;;;5153928;27;20078;-65
2023/06/11 10:13:31;;;;;;;4.93;4.47;;;30.00;99.90;;;;;;5154019;27;20038;-65
2023/06/11 10:16:06;;;;;;;5.30;4.80;;;30.10;99.90;;;;;;5118142;27;20535;-65
2023/06/11 10:18:32;;;;;;;5.28;4.55;;;30.20;99.90;;;;;;5154151;27;20131;-64
2023/06/11 10:21:00;;;;;;;4.45;4.05;;;30.20;99.90;;;;;;5153656;27;20489;-65
2023/06/11 10:23:40;;;;;;;9.52;5.00;;;30.30;99.90;;;;;;5153974;27;20121;-64
2023/06/11 10:26:07;;;;;;;5.22;4.57;;;30.50;99.90;;;;;;5157555;27;20046;-65
2023/06/11 10:28:49;;;;;;;5.10;4.60;;;30.60;99.90;;;;;;5158106;27;20043;-63
2023/06/11 10:31:25;;;;;;;4.57;4.18;;;30.80;99.90;;;;;;5144278;27;20051;-64
2023/06/11 10:33:51;;;;;;;4.63;4.18;;;31.00;99.90;;;;;;5137071;27;20054;-64
2023/06/11 10:36:32;;;;;;;4.10;3.70;;;31.10;99.90;;;;;;5137390;27;20412;-64
2023/06/11 10:39:09;;;;;;;5.88;3.85;;;31.00;99.90;;;;;;5153010;27;20054;-64
2023/06/11 10:41:42;;;;;;;4.72;4.32;;;31.00;99.90;;;;;;5157848;27;20088;-64
2023/06/11 10:44:10;;;;;;;5.20;4.20;;;31.10;99.90;;;;;;5157667;27;20043;-63
2023/06/11 10:46:50;;;;;;;5.63;4.07;;;31.20;99.90;;;;;;5157128;27;20119;-64
2023/06/11 10:49:17;;;;;;;5.10;4.30;;;31.30;99.90;;;;;;5145022;27;20051;-65
2023/06/11 10:51:43;;;;;;;5.10;4.60;;;31.40;99.90;;;;;;5136733;27;20147;-64
2023/06/11 10:54:09;;;;;;;4.55;4.10;;;31.40;99.90;;;;;;5118463;27;20078;-64
2023/06/11 10:56:38;;;;;;;4.07;3.67;;;31.50;99.90;;;;;;5118744;27;20139;-64
2023/06/11 10:59:10;;;;;;;5.10;4.60;;;31.60;99.90;;;;;;5136636;27;20566;-65
2023/06/11 11:01:37;;;;;;;4.70;3.88;;;31.70;99.90;;;;;;5117947;27;20861;-65
2023/06/11 11:04:03;;;;;;;4.13;3.72;;;31.80;99.90;;;;;;5136438;27;20081;-65
2023/06/11 11:06:30;;;;;;;4.32;3.90;;;32.00;99.90;;;;;;5137052;27;20035;-65
2023/06/11 11:08:56;;;;;;;4.43;4.03;;;32.10;99.90;;;;;;5136541;27;20054;-65
2023/06/11 11:11:23;;;;;;;4.40;3.83;;;32.20;99.90;;;;;;5136482;27;20050;-65
2023/06/11 11:13:50;;;;;;;5.32;4.38;;;32.30;99.90;;;;;;5118361;27;20047;-65
2023/06/11 11:16:18;;;;;;;3.95;3.53;;;32.30;99.90;;;;;;5135620;27;20131;-66
2023/06/11 11:18:46;;;;;;;3.78;3.47;;;32.50;99.90;;;;;;5136698;27;20126;-65
2023/06/11 11:21:11;;;;;;;4.53;4.10;;;32.50;99.90;;;;;;5136545;27;20090;-65
2023/06/11 11:23:37;;;;;;;4.40;4.00;;;32.60;99.90;;;;;;5136055;27;20039;-65
2023/06/11 11:26:04;;;;;;;4.43;4.03;;;32.70;99.60;;;;;;5135766;27;20506;-65
2023/06/11 11:28:32;;;;;;;4.05;3.65;;;32.80;99.30;;;;;;5136298;27;20134;-65
2023/06/11 11:30:59;;;;;;;4.88;4.03;;;32.90;99.10;;;;;;5143935;27;20039;-65
2023/06/11 11:33:26;;;;;;;4.45;3.90;;;32.90;98.20;;;;;;5136181;27;20055;-64
2023/06/11 11:35:53;;;;;;;7.03;4.00;;;32.90;98.20;;;;;;5134910;27;20139;-65
2023/06/11 11:38:20;;;;;;;4.38;3.95;;;32.90;97.80;;;;;;5136198;27;20055;-65
2023/06/11 11:40:52;;;;;;;4.57;4.18;;;33.00;97.60;;;;;;5136048;27;20453;-65
2023/06/11 11:43:18;;;;;;;4.35;3.95;;;33.10;97.80;;;;;;5136217;27;20072;-65
2023/06/11 11:45:48;;;;;;;4.10;3.70;;;33.30;97.30;;;;;;5135427;27;20043;-66
2023/06/11 11:48:17;;;;;;;4.35;3.50;;;33.40;96.70;;;;;;5139635;27;20046;-65
2023/06/11 11:50:50;;;;;;;4.40;3.88;;;33.50;96.50;;;;;;5156642;27;20049;-66
2023/06/11 11:53:18;;;;;;;5.30;3.90;;;33.70;96.20;;;;;;5156162;27;20054;-66
2023/06/11 11:55:45;;;;;;;4.15;3.80;;;33.60;95.60;;;;;;5156210;27;20042;-66
2023/06/11 11:58:15;;;;;;;4.40;4.00;;;33.30;95.10;;;;;;5154955;27;20055;-66
2023/06/11 12:00:51;;;;;;;4.25;3.85;;;33.30;94.40;;;;;;5135861;27;20164;-65
2023/06/11 12:03:21;;;;;;;6.05;3.90;;;33.30;94.60;;;;;;5135533;27;20043;-65
2023/06/11 12:06:00;;;;;;;5.05;4.10;;;33.30;93.60;;;;;;5117464;27;20095;-65
2023/06/11 12:08:27;;;;;;;4.32;3.72;;;33.20;93.40;;;;;;5135692;27;20103;-64
2023/06/11 12:10:53;;;;;;;5.07;3.50;;;33.30;93.70;;;;;;5135471;27;20047;-65
2023/06/11 12:13:19;;;;;;;4.25;3.85;;;33.30;93.60;;;;;;5117612;27;20055;-64
2023/06/11 12:15:45;;;;;;;4.32;3.92;;;33.40;93.90;;;;;;5135042;27;20055;-64
2023/06/11 12:18:11;;;;;;;4.53;4.13;;;33.50;93.60;;;;;;5135023;27;20074;-64
2023/06/11 12:20:36;;;;;;;4.57;3.85;;;33.50;92.90;;;;;;5135802;27;20108;-65
2023/06/11 12:23:03;;;;;;;4.55;4.15;;;33.60;93.00;;;;;;5117360;27;20472;-65
2023/06/11 12:25:30;;;;;;;4.45;3.67;;;33.70;93.50;;;;;;5135150;27;20659;-65
2023/06/11 12:27:56;;;;;;;5.20;3.92;;;33.80;94.00;;;;;;5135109;27;20399;-65
2023/06/11 12:30:22;;;;;;;4.28;3.88;;;33.90;93.90;;;;;;5135216;27;20043;-65
2023/06/11 12:32:48;;;;;;;4.43;4.03;;;33.80;93.60;;;;;;5154326;27;20041;-64
2023/06/11 12:35:14;;;;;;;5.85;4.07;;;33.40;93.00;;;;;;5155880;27;20039;-65
2023/06/11 12:37:40;;;;;;;5.40;3.80;;;33.10;92.90;;;;;;5150776;27;20057;-65
2023/06/11 12:40:06;;;;;;;4.43;4.03;;;33.30;93.30;;;;;;5143103;27;20050;-65
2023/06/11 12:42:34;;;;;;;4.50;4.10;;;33.60;93.20;;;;;;5145033;27;20481;-65
2023/06/11 12:45:01;;;;;;;4.85;3.97;;;33.90;93.00;;;;;;5143333;27;20039;-65
2023/06/11 12:47:27;;;;;;;4.28;3.72;;;34.20;93.60;;;;;;5143874;27;20403;-65